• Join FlightAware (Why Join?)
  • Login
  • US Flag 
07:51PM EDT


 

Airport Tracker/Info


-or-


 

Live Flight TrackerFlight Track Log ✈ UPS1121 ✈ 18-Jun-2013 ✈ KBDL - KPHL

Flight Track Log - Related Links

Times and Time Zones

All times are in EDT time to prevent confusion due to time zone crossing. See the UPS1121 flight status page for this flight to view local times or setup timezone preferences in your user account.

Time Position Orientation Groundspeed Altitude Reporting Facility
EDT Latitude Longitude Course Direction KTS MPH feet Rate Location/Type
09:56PM 41.9500 -72.7025 70° East 147 169 1,800  Level Boston Center
09:57PM 41.9625 -72.6550 70° East 166 191 3,400 2,400 Climbing Boston Center
09:58PM 41.9022 -72.6325 164° South 117 135 6,600 2,400 Climbing Boston Center
10:04PM 41.3470 -72.6530 164° South 383 441 20,000 1,980 Climbing FlightAware
10:05PM 41.2670 -72.6790 194° South 383 441 20,000  Level FlightAware
10:06PM 41.1760 -72.7130 196° South 380 437 20,000  Level FlightAware
10:06PM 41.1080 -72.7370 195° South 380 437 20,000  Level FlightAware
10:07PM 41.0180 -72.7690 195° South 381 438 20,000  Level FlightAware
10:08PM 40.9410 -72.7970 195° South 381 438 20,000  Level FlightAware
10:09PM 40.8650 -72.8470 206° Southwest 380 437 20,000  Level FlightAware
10:09PM 40.8041 -72.8917 209° Southwest 379 436 20,000  Level FlightAware ADS-B
10:10PM 40.7576 -72.9258 209° Southwest 377 434 20,000  Level FlightAware ADS-B
10:10PM 40.7102 -72.9606 209° Southwest 375 432 20,000  Level FlightAware ADS-B
10:11PM 40.6467 -73.0070 209° Southwest 375 432 20,000  Level FlightAware ADS-B
10:12PM 40.5965 -73.0435 209° Southwest 387 445 20,000  Level FlightAware ADS-B
10:12PM 40.5430 -73.0824 209° Southwest 389 448 20,000  Level FlightAware ADS-B
10:13PM 40.4947 -73.1174 209° Southwest 390 449 20,000  Level FlightAware ADS-B
10:13PM 40.4472 -73.1520 209° Southwest 389 448 20,000  Level FlightAware ADS-B
10:14PM 40.3996 -73.1864 209° Southwest 389 448 20,000  Level FlightAware ADS-B
10:14PM 40.3421 -73.2278 209° Southwest 390 449 20,000  Level FlightAware ADS-B
10:15PM 40.2917 -73.2642 209° Southwest 392 451 20,000  Level FlightAware ADS-B
10:16PM 40.2231 -73.3134 209° Southwest 394 453 20,000  Level FlightAware ADS-B
10:16PM 40.1744 -73.3483 209° Southwest 396 456 20,000  Level FlightAware ADS-B
10:17PM 40.1245 -73.3840 209° Southwest 398 458 20,000  Level FlightAware ADS-B
10:17PM 40.0752 -73.4191 209° Southwest 400 460 20,000  Level FlightAware ADS-B
10:18PM 40.0109 -73.4650 209° Southwest 401 461 20,000  Level FlightAware ADS-B
10:18PM 39.9603 -73.5010 209° Southwest 402 463 20,000  Level FlightAware ADS-B
10:19PM 39.9282 -73.5243 209° Southwest 401 461 20,000  Level FlightAware ADS-B
10:19PM 39.9068 -73.5440 215° Southwest 398 458 20,000  Level FlightAware ADS-B
10:19PM 39.8955 -73.5568 221° Southwest 396 456 20,000  Level FlightAware ADS-B
10:20PM 39.8624 -73.6056 229° Southwest 394 453 20,000  Level FlightAware ADS-B
10:20PM 39.8262 -73.6632 231° Southwest 394 453 20,000  Level FlightAware ADS-B
10:21PM 39.7871 -73.7255 231° Southwest 394 453 20,000  Level FlightAware ADS-B
10:21PM 39.7519 -73.7812 231° Southwest 395 455 20,000  Level FlightAware ADS-B
10:22PM 39.7131 -73.8424 231° Southwest 395 455 20,000 -120 Level FlightAware ADS-B
10:22PM 39.6763 -73.9003 230° Southwest 397 457 19,900 -1,080 Descending FlightAware ADS-B
10:23PM 39.6418 -73.9547 231° Southwest 385 443 18,900 -2,100 Descending FlightAware ADS-B
10:23PM 39.6300 -73.9730 230° Southwest 382 440 18,500 -2,640 Descending FlightAware
10:23PM 39.6075 -74.0085 231° Southwest 378 435 17,600 -2,820 Descending FlightAware ADS-B
10:24PM 39.5742 -74.0605 230° Southwest 373 429 16,200 -2,880 Descending FlightAware ADS-B
10:24PM 39.5472 -74.1031 231° Southwest 369 425 15,000 -2,760 Descending FlightAware ADS-B
10:24PM 39.5378 -74.1219 237° Southwest 365 420 14,600 -2,100 Descending FlightAware ADS-B
10:24PM 39.5315 -74.1411 247° West 362 417 14,300 -1,200 Descending FlightAware ADS-B
10:25PM 39.5271 -74.1632 256° West 360 414 14,200 -600 Descending FlightAware ADS-B
10:25PM 39.5257 -74.1837 265° West 358 412 14,100 -1,380 Descending FlightAware ADS-B
10:25PM 39.5264 -74.2503 271° West 361 415 13,300 -3,540 Descending FlightAware ADS-B
10:26PM 42.9260 -76.2820 336° Northwest 378 435 10,000 -1,260 Descending FlightAware
10:26PM 39.5284 -74.3534 156° South 359 413 12,300 1,800 Climbing FlightAware ADS-B
10:27PM 39.5294 -74.4453 271° West 360 414 11,600 -960 Descending FlightAware ADS-B
10:27PM 42.8400 -76.4510 336° Northwest 394 453 11,100 -1,080 Descending FlightAware
10:27PM 39.5300 -74.5256 156° South 327 376 10,900 -960 Descending FlightAware ADS-B
10:28PM 39.5310 -74.5820 271° West 305 351 10,500 -900 Descending FlightAware
10:28PM 39.5316 -74.6243 271° West 292 336 10,100 -960 Descending FlightAware ADS-B
10:29PM 39.5327 -74.6766 272° West 274 315 9,700 -720 Descending FlightAware ADS-B
10:29PM 39.5330 -74.6820 274° West 274 315 9,700 -960 Level FlightAware
10:29PM 39.5332 -74.7083 271° West 273 314 9,400 -960 Descending FlightAware ADS-B
10:29PM 39.5338 -74.7350 272° West 271 312 9,200 -780 Descending FlightAware ADS-B
10:30PM 39.5341 -74.7599 271° West 270 311 9,000 -240 Descending FlightAware ADS-B
10:30PM 39.5345 -74.7818 271° West 276 318 9,100 180 Climbing FlightAware ADS-B
10:30PM 39.5351 -74.8099 272° West 280 322 9,100  Level FlightAware ADS-B
10:30PM 39.5356 -74.8350 271° West 279 321 9,100  Level FlightAware ADS-B
10:31PM 39.5359 -74.8607 271° West 278 320 9,100  Level FlightAware ADS-B
10:31PM 39.5363 -74.8911 271° West 282 325 9,100  Level FlightAware ADS-B
10:31PM 39.5367 -74.9192 271° West 285 328 9,100  Level FlightAware ADS-B
10:32PM 39.5373 -74.9496 271° West 286 329 9,100 -300 Level FlightAware ADS-B
10:32PM 39.5417 -74.9954 277° West 289 333 8,900 -420 Descending FlightAware ADS-B
10:32PM 39.5430 -75.0005 288° West 282 325 8,900 -1,140 Level FlightAware ADS-B
10:32PM 39.5491 -75.0196 293° West 278 320 8,600 -1,680 Descending FlightAware ADS-B
10:33PM 39.5575 -75.0447 293° West 277 319 8,100 -1,800 Descending FlightAware ADS-B
10:33PM 39.5664 -75.0720 293° West 276 318 7,600 -1,560 Descending FlightAware ADS-B
10:33PM 39.5746 -75.0970 293° West 274 315 7,200 -1,500 Descending FlightAware ADS-B
10:33PM 39.5822 -75.1201 293° West 273 314 6,800 -1,620 Descending FlightAware ADS-B
10:34PM 39.5898 -75.1424 294° West 271 312 6,400 -1,500 Descending FlightAware ADS-B
10:34PM 39.5985 -75.1677 294° West 269 310 6,000 -1,500 Descending FlightAware ADS-B
10:34PM 39.6062 -75.1903 294° West 267 307 5,600 -1,500 Descending FlightAware ADS-B
10:35PM 39.6140 -75.2133 294° West 266 306 5,200 -1,200 Descending FlightAware ADS-B
10:35PM 39.6215 -75.2354 294° West 256 295 5,000 -240 Descending FlightAware ADS-B
10:35PM 39.6286 -75.2562 294° West 240 276 5,100  Climbing FlightAware ADS-B
10:35PM 39.6270 -75.2530 123° Southeast 244 281 5,000  Descending FlightAware
10:35PM 39.6351 -75.2760 295° West 228 262 5,100 180 Climbing FlightAware ADS-B
10:36PM 39.6412 -75.2946 293° West 212 244 5,100  Level FlightAware ADS-B
10:36PM 39.6473 -75.3138 292° West 192 221 5,100  Level FlightAware ADS-B
10:36PM 39.6521 -75.3292 292° West 183 211 5,100 -240 Level FlightAware ADS-B
10:36PM 39.6559 -75.3416 292° West 180 207 5,000 -900 Descending FlightAware ADS-B
10:37PM 39.6605 -75.3566 292° West 179 206 4,700 -1,200 Descending FlightAware ADS-B
10:37PM 39.6652 -75.3721 292° West 179 206 4,400 -1,140 Descending FlightAware ADS-B
10:37PM 39.6701 -75.3878 292° West 181 208 4,100 -1,200 Descending FlightAware ADS-B
10:37PM 39.6748 -75.4031 292° West 185 213 3,800 -1,440 Descending FlightAware ADS-B
10:38PM 39.6799 -75.4189 293° West 188 216 3,400 -1,440 Descending FlightAware ADS-B
10:38PM 39.6850 -75.4339 294° West 190 219 3,100 -900 Descending FlightAware ADS-B
10:38PM 39.6871 -75.4397 295° West 189 217 3,100  Level FlightAware ADS-B
10:38PM 39.6894 -75.4450 299° West 188 216 3,100 -720 Level FlightAware ADS-B
10:38PM 39.6913 -75.4480 309° West 187 215 3,000  Descending FlightAware ADS-B
10:38PM 39.6954 -75.4530 317° Northwest 184 212 3,100 240 Climbing FlightAware ADS-B
10:38PM 39.7074 -75.4646 323° Northwest 184 212 3,100  Level FlightAware ADS-B
10:39PM 39.7099 -75.4666 328° Northwest 184 212 3,100  Level FlightAware ADS-B
10:39PM 39.7213 -75.4742 333° Northwest 180 207 3,100  Level FlightAware ADS-B
10:39PM 39.7254 -75.4767 335° Northwest 182 209 3,100  Level FlightAware ADS-B
10:39PM 39.7296 -75.4789 338° Northwest 181 208 3,100  Level FlightAware ADS-B
10:39PM 39.7331 -75.4803 343° North 180 207 3,100  Level FlightAware ADS-B
10:39PM 39.7408 -75.4826 347° North 176 203 3,100  Level FlightAware ADS-B
10:39PM 39.7461 -75.4837 351° North 174 200 3,100  Level FlightAware ADS-B
10:39PM 39.7559 -75.4856 352° North 171 197 3,100  Level FlightAware ADS-B
10:40PM 39.7648 -75.4869 354° North 171 197 3,100  Level FlightAware ADS-B
10:40PM 39.7701 -75.4875 355° North 170 196 3,100  Level FlightAware ADS-B
10:40PM 39.7773 -75.4877 359° North 171 197 3,100  Level FlightAware ADS-B
10:40PM 39.7808 -75.4877 360° North 172 198 3,100  Level FlightAware ADS-B
10:40PM 39.7890 -75.4874 North 170 196 3,100  Level FlightAware ADS-B
10:40PM 39.7931 -75.4869 North 169 194 3,100  Level FlightAware ADS-B
10:40PM 39.7957 -75.4863 10° North 166 191 3,100  Level FlightAware ADS-B
10:40PM 39.8024 -75.4840 15° North 165 190 3,100  Level FlightAware ADS-B
10:41PM 39.8075 -75.4816 20° North 164 189 3,100  Level FlightAware ADS-B
10:41PM 39.8111 -75.4795 24° Northeast 163 188 3,100  Level FlightAware ADS-B
10:41PM 39.8133 -75.4776 34° Northeast 162 186 3,100  Level FlightAware ADS-B
10:41PM 39.8156 -75.4749 42° Northeast 161 185 3,100  Level FlightAware ADS-B
10:41PM 39.8174 -75.4718 53° Northeast 159 183 3,100  Level FlightAware ADS-B
10:41PM 39.8187 -75.4690 59° Northeast 159 183 3,100 -840 Level FlightAware ADS-B
10:41PM 39.8221 -75.4591 66° East 165 190 2,900 -900 Descending FlightAware ADS-B
10:41PM 39.8249 -75.4505 67° East 164 189 2,800 -960 Descending FlightAware ADS-B
10:41PM 39.8260 -75.4471 67° East 164 189 2,700 -900 Descending FlightAware ADS-B
10:41PM 39.8269 -75.4439 70° East 164 189 2,700 -780 Level FlightAware ADS-B
10:41PM 39.8279 -75.4396 73° East 162 186 2,600 -900 Descending FlightAware ADS-B
10:42PM 39.8295 -75.4314 76° East 160 184 2,500 -720 Descending FlightAware ADS-B
10:42PM 39.8311 -75.4226 77° East 158 182 2,400 -840 Descending FlightAware ADS-B
10:42PM 39.8336 -75.4108 75° East 150 173 2,200 -840 Descending FlightAware ADS-B
10:42PM 39.8351 -75.4035 75° East 147 169 2,100 -780 Descending FlightAware ADS-B
10:42PM 39.8377 -75.3905 75° East 143 165 1,900 -840 Descending FlightAware ADS-B
10:43PM 39.8400 -75.3794 75° East 146 168 1,700 -900 Descending FlightAware ADS-B
10:43PM 39.8425 -75.3668 76° East 136 157 1,500 -600 Descending FlightAware ADS-B
10:43PM 39.8449 -75.3549 75° East 121 139 1,400 -420 Descending FlightAware ADS-B